CheckWX is a tool to help pilots better visualize weather data.  It is not intended as a substitute for an official pre-flight weather briefing.

17:02:59 UTC

KCVO METAR
Corvallis Municipal Airport
Corvallis, Oregon, USA
Current

7 mins ago

KCVO 191656Z AUTO 33003KT 10SM BKN004 BKN024 13/12 A3011 RMK AO2 SLP198 T01330122
Observed
Sep-19 @ 16:56 UTC
Wind
  • 330° at 3 KTS
Visibility
10 SM
Flight Rules
LIFR
Cloud Levels
  • Broken at 400' AGL
  • Broken at 2,400' AGL
Temperature
13°C / 55°F
Dewpoint
12°C / 54°F
Humidity
94%
Altimeter
30.11" Hg
Pressure
1019.62 hPa
Previous

1 hour ago

KCVO 191556Z AUTO 34003KT 10SM BKN002 BKN032 12/11 A3010 RMK AO2 SLP195 T01220111
Observed
Sep-19 @ 15:56 UTC
Wind
  • 340° at 3 KTS
Visibility
10 SM
Flight Rules
LIFR
Cloud Levels
  • Broken at 200' AGL
  • Broken at 3,200' AGL
Temperature
12°C / 54°F
Dewpoint
11°C / 52°F
Humidity
94%
Altimeter
30.1" Hg
Pressure
1019.32 hPa
Previous

1 hour ago

KCVO 191547Z AUTO 33003KT 10SM BKN002 OVC032 12/11 A3010 RMK AO2
Observed
Sep-19 @ 15:47 UTC
Wind
  • 330° at 3 KTS
Visibility
10 SM
Flight Rules
LIFR
Cloud Levels
  • Broken at 200' AGL
  • Overcast at 3,200' AGL
Temperature
12°C / 54°F
Dewpoint
11°C / 52°F
Humidity
94%
Altimeter
30.1" Hg
Pressure
1019.32 hPa